createdAt,value
2018-03-18T00:00:29.314Z,68.40
2018-03-18T00:03:01.687Z,68.00
2018-03-18T00:05:28.925Z,68.30
2018-03-18T00:07:56.229Z,68.60
2018-03-18T00:10:24.153Z,70.80
2018-03-18T00:12:52.557Z,69.80
2018-03-18T00:15:19.914Z,69.40
2018-03-18T00:17:47.233Z,68.50
2018-03-18T00:20:14.535Z,69.50
2018-03-18T00:22:42.845Z,69.80
2018-03-18T00:25:09.980Z,70.00
2018-03-18T00:27:37.245Z,70.10
2018-03-18T00:30:04.320Z,70.10
2018-03-18T00:32:31.580Z,69.60
2018-03-18T00:34:58.742Z,69.80
2018-03-18T00:37:31.805Z,70.30
2018-03-18T00:39:59.122Z,71.00
2018-03-18T00:42:26.621Z,71.20
2018-03-18T00:44:53.977Z,70.80
2018-03-18T00:47:21.260Z,70.70
2018-03-18T00:49:48.572Z,70.10
2018-03-18T00:52:19.471Z,70.90
2018-03-18T00:54:46.671Z,72.50
2018-03-18T00:57:13.901Z,73.80
2018-03-18T00:59:41.224Z,74.60
2018-03-18T01:02:09.661Z,74.60
2018-03-18T01:04:36.852Z,74.50
2018-03-18T01:07:03.968Z,74.60
2018-03-18T01:09:31.230Z,75.10
2018-03-18T01:11:59.707Z,75.60
2018-03-18T01:14:26.898Z,76.20
2018-03-18T01:16:54.180Z,75.80
2018-03-18T01:19:21.348Z,75.90
2018-03-18T01:21:49.617Z,76.10
2018-03-18T01:24:16.849Z,75.70
2018-03-18T01:26:44.162Z,75.80
2018-03-18T01:29:11.290Z,75.20
2018-03-18T01:31:42.529Z,75.30
2018-03-18T01:34:09.830Z,75.60
2018-03-18T01:36:37.313Z,76.20
2018-03-18T01:39:04.498Z,75.90
2018-03-18T01:41:35.315Z,76.10
2018-03-18T01:44:02.473Z,76.00
2018-03-18T01:46:29.870Z,75.90
2018-03-18T01:48:57.059Z,79.40
2018-03-18T01:51:29.740Z,80.60
2018-03-18T01:53:56.954Z,80.50
2018-03-18T01:56:24.106Z,79.90
2018-03-18T02:01:40.081Z,78.50
2018-03-18T02:04:07.358Z,78.50
2018-03-18T02:06:34.561Z,79.30
2018-03-18T02:09:01.829Z,79.80
2018-03-18T02:11:31.035Z,78.70
2018-03-18T02:13:58.261Z,78.50
2018-03-18T02:16:25.533Z,78.80
2018-03-18T02:18:52.695Z,80.80
2018-03-18T02:21:23.512Z,80.80
2018-03-18T02:23:50.821Z,81.10
2018-03-18T02:26:17.957Z,81.80
2018-03-18T02:28:45.105Z,81.70
2018-03-18T02:31:14.074Z,81.10
2018-03-18T02:33:41.311Z,81.10
2018-03-18T02:36:08.582Z,81.10
2018-03-18T02:38:35.818Z,80.20
2018-03-18T02:41:04.174Z,80.10
2018-03-18T02:43:32.242Z,79.30
2018-03-18T02:45:59.818Z,79.30
2018-03-18T02:48:27.092Z,78.60
2018-03-18T02:50:55.365Z,79.40
2018-03-18T02:53:22.987Z,79.30
2018-03-18T02:55:50.246Z,79.20
2018-03-18T02:58:17.448Z,79.20
2018-03-18T03:00:44.753Z,79.70
2018-03-18T03:03:12.112Z,79.90
2018-03-18T03:05:40.230Z,79.80
2018-03-18T03:08:08.111Z,79.90
2018-03-18T03:10:36.113Z,80.30
2018-03-18T03:13:04.390Z,80.30
2018-03-18T03:15:31.580Z,80.80
2018-03-18T03:17:58.966Z,82.10
2018-03-18T03:20:26.117Z,83.00
2018-03-18T03:22:57.239Z,83.80
2018-03-18T03:25:24.556Z,83.90
2018-03-18T03:27:51.961Z,85.10
2018-03-18T03:30:19.256Z,86.30
2018-03-18T03:32:47.547Z,86.00
2018-03-18T03:35:14.742Z,86.20
2018-03-18T03:37:41.969Z,85.70
2018-03-18T03:40:09.182Z,85.30
2018-03-18T03:42:36.588Z,86.00
2018-03-18T03:45:04.237Z,87.50
2018-03-18T03:47:32.184Z,88.30
2018-03-18T03:49:59.370Z,88.20
2018-03-18T03:52:30.263Z,88.40
2018-03-18T03:54:57.507Z,89.20
2018-03-18T03:57:24.612Z,89.40
2018-03-18T03:59:51.844Z,90.40
2018-03-18T04:02:22.196Z,90.70
2018-03-18T04:04:49.411Z,90.50
2018-03-18T04:07:16.669Z,89.70
2018-03-18T04:09:43.821Z,88.90
2018-03-18T04:12:12.237Z,89.50
2018-03-18T04:14:39.545Z,90.20
2018-03-18T04:17:06.819Z,90.40
2018-03-18T04:19:33.903Z,90.60
2018-03-18T04:22:02.215Z,90.90
2018-03-18T04:24:29.366Z,90.60
2018-03-18T04:26:56.601Z,91.20
2018-03-18T04:29:23.746Z,91.70
2018-03-18T04:31:54.360Z,91.80
2018-03-18T04:34:21.550Z,91.80
2018-03-18T04:36:48.798Z,90.90
2018-03-18T04:39:21.993Z,91.60
2018-03-18T04:41:51.421Z,91.40
2018-03-18T04:44:18.601Z,91.50
2018-03-18T04:46:45.901Z,91.70
2018-03-18T04:49:13.080Z,92.00
2018-03-18T04:51:41.554Z,91.80
2018-03-18T04:54:09.667Z,91.20
2018-03-18T04:56:38.145Z,91.40
2018-03-18T04:59:05.431Z,91.30
2018-03-18T05:01:33.897Z,90.40
2018-03-18T05:04:01.035Z,88.60
2018-03-18T05:06:28.917Z,89.50
2018-03-18T05:08:56.444Z,89.80
2018-03-18T05:11:26.985Z,90.20
2018-03-18T05:13:54.569Z,91.10
2018-03-18T05:16:21.720Z,90.40
2018-03-18T05:18:49.078Z,91.20
2018-03-18T05:21:20.225Z,90.10
2018-03-18T05:23:47.381Z,90.20
2018-03-18T05:26:14.608Z,88.50
2018-03-18T05:28:41.868Z,87.80
2018-03-18T05:31:10.261Z,88.80
2018-03-18T05:33:37.606Z,88.20
2018-03-18T05:36:04.829Z,88.50
2018-03-18T05:38:32.116Z,87.20
2018-03-18T05:41:00.574Z,87.20
2018-03-18T05:43:27.867Z,87.60
2018-03-18T05:45:54.939Z,90.00
2018-03-18T05:48:23.026Z,90.50
2018-03-18T05:50:51.502Z,90.60
2018-03-18T05:53:18.558Z,90.90
2018-03-18T05:55:45.833Z,91.10
2018-03-18T05:58:13.002Z,91.50
2018-03-18T06:00:44.297Z,92.20
2018-03-18T06:03:11.624Z,93.30
2018-03-18T06:05:38.803Z,93.30
2018-03-18T06:08:06.527Z,92.70
2018-03-18T06:10:34.701Z,92.90
2018-03-18T06:13:02.659Z,92.90
2018-03-18T06:15:29.819Z,95.20
2018-03-18T06:17:56.974Z,95.10
2018-03-18T06:20:27.258Z,95.00
2018-03-18T06:22:55.078Z,95.00
2018-03-18T06:25:23.205Z,95.70
2018-03-18T06:27:50.492Z,95.90
2018-03-18T06:30:17.894Z,96.70
2018-03-18T06:32:45.473Z,96.50
2018-03-18T06:35:12.754Z,96.30
2018-03-18T06:37:40.066Z,97.20
2018-03-18T06:40:08.090Z,94.60
2018-03-18T06:42:35.406Z,94.40
2018-03-18T06:45:02.693Z,95.50
2018-03-18T06:47:29.910Z,95.70
2018-03-18T06:49:57.599Z,95.60
2018-03-18T06:52:27.808Z,94.60
2018-03-18T06:54:55.034Z,94.50
2018-03-18T06:57:22.224Z,94.00
2018-03-18T06:59:49.654Z,93.30
2018-03-18T07:02:17.814Z,93.00
2018-03-18T07:04:45.114Z,91.70
2018-03-18T07:07:12.406Z,95.80
2018-03-18T07:09:39.730Z,94.40
2018-03-18T07:12:07.024Z,94.10
2018-03-18T07:14:34.414Z,92.20
2018-03-18T07:17:02.277Z,92.70
2018-03-18T07:19:29.430Z,94.20
2018-03-18T07:21:56.835Z,94.80
2018-03-18T07:24:24.984Z,93.80
2018-03-18T07:26:52.255Z,93.70
2018-03-18T07:29:19.397Z,93.60
2018-03-18T07:31:46.626Z,93.20
2018-03-18T07:34:14.683Z,94.40
2018-03-18T07:36:42.037Z,94.40
2018-03-18T07:39:09.285Z,94.80
2018-03-18T07:41:36.975Z,95.20
2018-03-18T07:44:04.306Z,95.60
2018-03-18T07:46:31.490Z,95.70
2018-03-18T07:48:58.744Z,95.40
2018-03-18T07:51:26.038Z,95.00
2018-03-18T07:53:53.280Z,93.90
2018-03-18T07:56:20.595Z,94.60
2018-03-18T07:58:47.703Z,94.00
2018-03-18T08:01:15.186Z,93.30
2018-03-18T08:03:43.189Z,93.70
2018-03-18T08:06:10.395Z,93.70
2018-03-18T08:08:37.572Z,93.50
2018-03-18T08:11:04.926Z,93.10
2018-03-18T08:13:32.129Z,93.20
2018-03-18T08:15:59.495Z,93.80
2018-03-18T08:18:26.781Z,93.50
2018-03-18T08:20:54.127Z,93.90
2018-03-18T08:23:21.283Z,94.10
2018-03-18T08:25:48.642Z,94.00
2018-03-18T08:28:15.625Z,94.00
2018-03-18T08:30:43.813Z,93.70
2018-03-18T08:33:11.006Z,93.10
2018-03-18T08:35:38.371Z,93.40
2018-03-18T08:38:05.506Z,93.60
2018-03-18T08:40:33.993Z,93.60
2018-03-18T08:43:03.555Z,93.70
2018-03-18T08:45:33.997Z,94.00
2018-03-18T08:48:01.423Z,94.00
2018-03-18T08:50:32.759Z,94.60
2018-03-18T08:52:59.949Z,94.60
2018-03-18T08:55:27.238Z,95.50
2018-03-18T08:57:54.489Z,95.10
2018-03-18T09:00:23.347Z,95.90
2018-03-18T09:02:50.594Z,95.30
2018-03-18T09:05:17.965Z,95.50
2018-03-18T09:07:45.213Z,96.00
2018-03-18T09:10:13.635Z,96.50
2018-03-18T09:12:40.972Z,96.40
2018-03-18T09:15:08.175Z,95.80
2018-03-18T09:17:35.462Z,96.10
2018-03-18T09:20:02.872Z,95.60
2018-03-18T09:22:30.110Z,96.10
2018-03-18T09:24:57.262Z,95.80
2018-03-18T09:27:24.577Z,95.50
2018-03-18T09:29:52.779Z,96.00
2018-03-18T09:32:19.793Z,95.70
2018-03-18T09:34:46.919Z,95.90
2018-03-18T09:37:14.101Z,95.70
2018-03-18T09:39:41.310Z,95.90
2018-03-18T09:42:08.625Z,96.50
2018-03-18T09:44:35.824Z,96.80
2018-03-18T09:47:03.115Z,96.90
2018-03-18T09:49:30.613Z,97.20
2018-03-18T09:51:58.978Z,97.30
2018-03-18T09:54:26.179Z,97.20
2018-03-18T09:56:53.454Z,96.60
2018-03-18T09:59:20.886Z,96.90
2018-03-18T10:01:51.752Z,97.20
2018-03-18T10:04:19.292Z,96.50
2018-03-18T10:06:47.551Z,96.30
2018-03-18T10:09:18.632Z,96.90
2018-03-18T10:11:47.738Z,96.60
2018-03-18T10:14:15.199Z,96.30
2018-03-18T10:16:42.391Z,96.20
2018-03-18T10:19:09.616Z,95.50
2018-03-18T10:21:37.151Z,95.30
2018-03-18T10:24:04.461Z,95.70
2018-03-18T10:26:31.809Z,95.90
2018-03-18T10:28:59.765Z,94.80
2018-03-18T10:31:33.174Z,95.30
2018-03-18T10:34:01.453Z,95.30
2018-03-18T10:36:28.795Z,95.30
2018-03-18T10:38:56.926Z,95.80
2018-03-18T10:41:24.079Z,95.70
2018-03-18T10:43:51.454Z,95.80
2018-03-18T10:46:18.703Z,95.80
2018-03-18T10:48:45.958Z,96.70
2018-03-18T10:51:14.954Z,96.20
2018-03-18T10:53:42.210Z,96.10
2018-03-18T10:56:09.510Z,96.80
2018-03-18T10:58:36.671Z,96.40
2018-03-18T11:01:09.770Z,96.40
2018-03-18T11:03:37.014Z,96.50
2018-03-18T11:06:04.226Z,96.50
2018-03-18T11:08:31.385Z,97.40
2018-03-18T11:11:04.509Z,97.10
2018-03-18T11:13:31.790Z,97.00
2018-03-18T11:15:59.095Z,97.20
2018-03-18T11:18:26.390Z,96.20
2018-03-18T11:20:54.642Z,96.60
2018-03-18T11:23:21.907Z,97.10
2018-03-18T11:25:49.179Z,96.00
2018-03-18T11:28:16.478Z,97.10
2018-03-18T11:30:44.710Z,97.20
2018-03-18T11:33:11.976Z,97.30
2018-03-18T11:35:39.263Z,97.90
2018-03-18T11:38:06.476Z,98.10
2018-03-18T11:40:34.679Z,98.00
2018-03-18T11:43:01.939Z,97.80
2018-03-18T11:45:29.138Z,98.40
2018-03-18T11:47:56.440Z,98.20
2018-03-18T11:50:31.270Z,97.90
2018-03-18T11:52:58.619Z,98.50
2018-03-18T11:55:25.798Z,98.00
2018-03-18T11:57:53.885Z,98.50
2018-03-18T12:00:27.203Z,98.70
2018-03-18T12:02:54.558Z,98.90
2018-03-18T12:05:21.786Z,98.30
2018-03-18T12:07:49.019Z,98.00
2018-03-18T12:10:22.032Z,98.70
2018-03-18T12:12:49.258Z,99.20
2018-03-18T12:15:16.782Z,99.50
2018-03-18T12:17:44.740Z,99.90
2018-03-18T12:20:15.484Z,99.90
2018-03-18T12:22:42.722Z,99.90
2018-03-18T12:25:10.131Z,99.90
2018-03-18T12:27:37.394Z,99.90
2018-03-18T12:30:08.372Z,99.90
2018-03-18T12:32:36.445Z,99.90
2018-03-18T12:35:03.571Z,99.90
2018-03-18T12:37:30.681Z,99.90
2018-03-18T12:40:16.842Z,99.90
2018-03-18T12:45:44.386Z,99.90
2018-03-18T12:48:11.590Z,99.90
2018-03-18T12:50:39.761Z,99.90
2018-03-18T12:53:07.750Z,99.90
2018-03-18T12:55:34.876Z,99.90
2018-03-18T12:58:02.117Z,99.90
2018-03-18T13:00:33.800Z,99.90
2018-03-18T13:03:00.947Z,99.90
2018-03-18T13:05:28.077Z,99.90
2018-03-18T13:07:55.364Z,99.90
2018-03-18T13:10:26.067Z,99.90
2018-03-18T13:12:53.314Z,99.90
2018-03-18T13:15:20.599Z,99.90
2018-03-18T13:17:48.532Z,99.90
2018-03-18T13:20:20.238Z,99.90
2018-03-18T13:22:48.259Z,99.90
2018-03-18T13:25:15.664Z,99.90
2018-03-18T13:27:42.891Z,99.90
2018-03-18T13:30:10.196Z,99.90
2018-03-18T13:32:37.478Z,99.90
2018-03-18T13:35:04.573Z,99.90
2018-03-18T13:37:32.415Z,99.90
2018-03-18T13:40:01.154Z,99.90
2018-03-18T13:42:28.266Z,99.90
2018-03-18T13:44:55.529Z,99.90
2018-03-18T13:47:22.870Z,99.90
2018-03-18T13:49:50.358Z,99.90
2018-03-18T13:52:17.749Z,99.90
2018-03-18T13:54:44.983Z,99.90
2018-03-18T13:57:12.322Z,99.90
2018-03-18T13:59:40.539Z,99.90
2018-03-18T14:02:07.796Z,99.90
2018-03-18T14:04:35.355Z,99.90
2018-03-18T14:07:02.659Z,99.90
2018-03-18T14:09:33.954Z,99.90
2018-03-18T14:12:01.111Z,99.90
2018-03-18T14:14:29.142Z,99.90
2018-03-18T14:16:56.352Z,99.90
2018-03-18T14:19:24.731Z,99.90
2018-03-18T14:21:52.106Z,99.90
2018-03-18T14:24:19.406Z,99.90
2018-03-18T14:26:46.633Z,99.90
2018-03-18T14:29:16.956Z,99.90
2018-03-18T14:31:44.178Z,99.90
2018-03-18T14:34:11.343Z,99.90
2018-03-18T14:36:38.622Z,99.90
2018-03-18T14:39:05.814Z,99.90
2018-03-18T14:41:33.052Z,99.90
2018-03-18T14:44:01.066Z,99.90
2018-03-18T14:46:28.821Z,99.90
2018-03-18T14:48:56.096Z,99.90
2018-03-18T14:51:23.439Z,99.90
2018-03-18T14:53:50.642Z,99.90
2018-03-18T14:56:18.300Z,99.90
2018-03-18T14:58:45.858Z,99.90
2018-03-18T15:01:13.198Z,99.90
2018-03-18T15:03:40.528Z,99.90
2018-03-18T15:06:07.808Z,99.90
2018-03-18T15:08:35.279Z,99.90
2018-03-18T15:11:05.876Z,99.90
2018-03-18T15:13:33.103Z,99.90
2018-03-18T15:16:01.096Z,99.90
2018-03-18T15:18:28.360Z,99.90
2018-03-18T15:20:56.035Z,99.90
2018-03-18T15:23:23.400Z,99.90
2018-03-18T15:25:50.586Z,99.90
2018-03-18T15:28:17.930Z,99.90
2018-03-18T15:30:45.166Z,99.90
2018-03-18T15:33:12.305Z,99.90
2018-03-18T15:35:39.633Z,99.90
2018-03-18T15:41:54.066Z,99.90
2018-03-18T15:44:21.880Z,99.90
2018-03-18T15:46:49.150Z,99.90
2018-03-18T15:49:23.042Z,99.90
2018-03-18T15:51:50.376Z,99.90
2018-03-18T15:54:17.704Z,99.90
2018-03-18T15:56:45.028Z,99.90
2018-03-18T15:59:16.280Z,99.90
2018-03-18T16:01:43.615Z,99.90
2018-03-18T16:04:10.969Z,99.90
2018-03-18T16:06:38.327Z,99.90
2018-03-18T16:09:06.848Z,99.90
2018-03-18T16:11:34.193Z,99.90
2018-03-18T16:14:02.083Z,99.90
2018-03-18T16:16:30.223Z,99.90
2018-03-18T16:18:57.581Z,99.90
2018-03-18T16:21:24.727Z,99.90
2018-03-18T16:23:51.974Z,99.90
2018-03-18T16:26:19.284Z,99.90
2018-03-18T16:28:46.627Z,99.90
2018-03-18T16:31:17.428Z,99.90
2018-03-18T16:33:44.639Z,99.90
2018-03-18T16:36:11.811Z,99.90
2018-03-18T16:38:39.045Z,99.90
2018-03-18T16:41:06.219Z,99.90
2018-03-18T16:43:33.499Z,99.90
2018-03-18T16:46:00.798Z,99.90
2018-03-18T16:48:27.983Z,99.90
2018-03-18T16:50:55.388Z,99.90
2018-03-18T16:53:22.638Z,99.90
2018-03-18T16:55:53.386Z,99.90
2018-03-18T16:58:21.876Z,99.90
2018-03-18T17:00:49.348Z,99.90
2018-03-18T17:03:16.566Z,99.90
2018-03-18T17:05:43.929Z,99.90
2018-03-18T17:08:11.820Z,99.90
2018-03-18T17:10:40.211Z,99.90
2018-03-18T17:13:08.169Z,99.90
2018-03-18T17:15:35.496Z,99.90
2018-03-18T17:18:03.290Z,99.90
2018-03-18T17:20:31.970Z,99.90
2018-03-18T17:22:59.384Z,99.90
2018-03-18T17:25:26.870Z,99.90
2018-03-18T17:27:55.615Z,99.90
2018-03-18T17:30:23.207Z,99.90
2018-03-18T17:32:50.954Z,99.90
2018-03-18T17:35:18.355Z,99.90
2018-03-18T17:37:45.692Z,99.90
2018-03-18T17:40:13.935Z,99.90
2018-03-18T17:42:41.238Z,99.90
2018-03-18T17:45:27.721Z,99.90
2018-03-18T17:48:12.818Z,99.90
2018-03-18T17:50:59.582Z,99.90
2018-03-18T17:53:44.782Z,99.90
2018-03-18T17:56:29.903Z,99.90
2018-03-18T17:59:01.632Z,99.90
2018-03-18T18:01:28.994Z,99.90
2018-03-18T18:03:57.618Z,99.90
2018-03-18T18:06:24.908Z,99.90
2018-03-18T18:08:53.338Z,99.90
2018-03-18T18:11:20.674Z,99.90
2018-03-18T18:13:49.684Z,99.90
2018-03-18T18:16:16.835Z,99.90
2018-03-18T18:18:45.883Z,99.90
2018-03-18T18:21:13.602Z,99.90
2018-03-18T18:23:40.991Z,99.90
2018-03-18T18:26:08.174Z,99.90
2018-03-18T18:28:41.226Z,99.90
2018-03-18T18:31:08.559Z,99.90
2018-03-18T18:33:35.842Z,99.90
2018-03-18T18:36:03.052Z,99.90
2018-03-18T18:38:31.923Z,99.90
2018-03-18T18:40:59.515Z,99.90
2018-03-18T18:43:27.126Z,99.90
2018-03-18T18:45:54.804Z,99.90
2018-03-18T18:48:22.252Z,99.90
2018-03-18T18:50:50.438Z,99.90
2018-03-18T18:53:18.482Z,99.90
2018-03-18T18:55:47.583Z,99.90
2018-03-18T18:58:14.738Z,99.90
2018-03-18T19:00:43.482Z,99.90
2018-03-18T19:03:10.795Z,99.90
2018-03-18T19:05:38.127Z,99.90
2018-03-18T19:08:05.463Z,99.90
2018-03-18T19:10:35.885Z,99.90
2018-03-18T19:13:04.158Z,99.90
2018-03-18T19:15:34.292Z,99.90
2018-03-18T19:18:05.817Z,99.90
2018-03-18T19:20:34.926Z,99.90
2018-03-18T19:23:02.943Z,99.90
2018-03-18T19:25:30.277Z,99.90
2018-03-18T19:27:57.495Z,99.90
2018-03-18T19:30:27.868Z,99.90
2018-03-18T19:32:55.268Z,99.90
2018-03-18T19:35:23.647Z,99.90
2018-03-18T19:37:50.956Z,99.90
2018-03-18T19:40:22.167Z,99.90
2018-03-18T19:42:49.413Z,99.90
2018-03-18T19:45:17.673Z,99.90
2018-03-18T19:47:45.168Z,99.90
2018-03-18T19:50:12.582Z,99.90
2018-03-18T19:52:39.936Z,99.90
2018-03-18T19:55:08.316Z,99.90
2018-03-18T19:57:36.213Z,99.90
2018-03-18T20:00:04.752Z,99.90
2018-03-18T20:02:32.074Z,99.90
2018-03-18T20:04:59.312Z,99.90
2018-03-18T20:07:27.511Z,99.90
2018-03-18T20:09:55.099Z,99.90
2018-03-18T20:12:22.343Z,99.90
2018-03-18T20:14:49.709Z,99.90
2018-03-18T20:17:17.048Z,99.90
2018-03-18T20:19:44.392Z,99.90
2018-03-18T20:22:12.333Z,99.90
2018-03-18T20:24:39.691Z,99.90
2018-03-18T20:27:07.067Z,99.90
2018-03-18T20:29:34.436Z,99.90
2018-03-18T20:32:01.827Z,99.90
2018-03-18T20:34:29.254Z,99.90
2018-03-18T20:36:56.490Z,99.90
2018-03-18T20:39:23.739Z,99.90
2018-03-18T20:41:50.988Z,99.90
2018-03-18T20:44:19.045Z,99.90
2018-03-18T20:46:46.421Z,99.90
2018-03-18T20:49:13.894Z,99.90
2018-03-18T20:51:41.256Z,99.90
2018-03-18T20:54:08.550Z,99.90
2018-03-18T20:56:35.823Z,99.90
2018-03-18T20:59:03.191Z,99.90
2018-03-18T21:01:31.152Z,99.90
2018-03-18T21:03:58.381Z,99.90
2018-03-18T21:06:25.533Z,99.90
2018-03-18T21:08:53.813Z,99.90
2018-03-18T21:11:20.934Z,99.90
2018-03-18T21:13:48.110Z,99.90
2018-03-18T21:16:15.686Z,99.90
2018-03-18T21:18:43.059Z,99.90
2018-03-18T21:21:10.406Z,99.90
2018-03-18T21:23:37.737Z,99.90
2018-03-18T21:26:05.694Z,99.90
2018-03-18T21:28:33.122Z,99.90
2018-03-18T21:31:01.115Z,99.90
2018-03-18T21:33:28.382Z,99.90
2018-03-18T21:35:55.610Z,99.90
2018-03-18T21:38:22.862Z,99.90
2018-03-18T21:40:50.364Z,99.90
2018-03-18T21:43:17.647Z,99.90
2018-03-18T21:45:44.855Z,99.90
2018-03-18T21:48:13.910Z,99.90
2018-03-18T21:50:41.106Z,99.90
2018-03-18T21:53:08.376Z,99.90
2018-03-18T21:55:35.711Z,99.90
2018-03-18T21:58:03.180Z,99.90
2018-03-18T22:00:30.396Z,99.90
2018-03-18T22:02:57.650Z,99.90
2018-03-18T22:05:25.075Z,99.90
2018-03-18T22:07:52.381Z,99.90
2018-03-18T22:10:19.578Z,99.90
2018-03-18T22:12:46.939Z,99.90
2018-03-18T22:15:14.219Z,99.90
2018-03-18T22:17:41.506Z,99.90
2018-03-18T22:20:11.809Z,99.90
2018-03-18T22:22:39.060Z,99.90
2018-03-18T22:25:06.307Z,99.90
2018-03-18T22:27:33.554Z,99.90
2018-03-18T22:30:01.786Z,99.90
2018-03-18T22:32:29.121Z,99.90
2018-03-18T22:34:56.880Z,99.90
2018-03-18T22:37:24.259Z,99.90
2018-03-18T22:39:52.486Z,99.90
2018-03-18T22:42:19.723Z,99.90
2018-03-18T22:44:47.062Z,99.90
2018-03-18T22:47:14.420Z,99.90
2018-03-18T22:49:42.800Z,99.90
2018-03-18T22:52:09.893Z,99.90
2018-03-18T22:54:37.275Z,99.90
2018-03-18T22:57:04.429Z,99.90
2018-03-18T22:59:34.566Z,99.90
2018-03-18T23:02:01.782Z,99.90
2018-03-18T23:04:29.107Z,99.90
2018-03-18T23:06:56.302Z,99.90
2018-03-18T23:09:23.612Z,99.90
2018-03-18T23:11:51.011Z,99.90
2018-03-18T23:14:18.263Z,99.90
2018-03-18T23:16:46.190Z,99.90
2018-03-18T23:19:14.670Z,99.90
2018-03-18T23:21:41.955Z,99.90
2018-03-18T23:24:09.165Z,99.90
2018-03-18T23:26:36.426Z,99.90
2018-03-18T23:29:04.810Z,99.90
2018-03-18T23:31:32.190Z,99.90
2018-03-18T23:34:00.214Z,99.90
2018-03-18T23:36:27.425Z,99.90
2018-03-18T23:38:58.672Z,99.90
2018-03-18T23:41:26.042Z,99.90
2018-03-18T23:43:53.358Z,99.90
2018-03-18T23:46:20.670Z,99.90
2018-03-18T23:48:49.051Z,99.90
2018-03-18T23:51:16.288Z,99.90
2018-03-18T23:53:43.612Z,99.90
2018-03-18T23:56:10.886Z,99.90
2018-03-18T23:58:39.386Z,99.90
